Time;durP1;ratioP1;P1;durP2;ratioP2;P2;SDS_P1;SDS_P2;PMS_P1;PMS_P2;Temp;Humidity;BMP_temperature;BMP_pressure;BME280_temperature;BME280_humidity;BME280_pressure;Samples;Min_cycle;Max_cycle;Signal;HPM_P1;HPM_P2
2022/08/16 00:00:16;;;;;;;3.00;1.88;;;25.90;51.60;;;;;;5048092;28;20444;-59
2022/08/16 00:02:49;;;;;;;2.10;2.00;;;25.90;51.60;;;;;;5046077;28;20297;-59
2022/08/16 00:05:19;;;;;;;2.43;2.23;;;25.90;51.60;;;;;;5047961;28;20545;-59
2022/08/16 00:07:47;;;;;;;2.40;2.20;;;25.90;51.60;;;;;;5047849;28;20045;-59
2022/08/16 00:10:23;;;;;;;2.35;2.15;;;25.90;51.70;;;;;;5047768;28;20114;-59
2022/08/16 00:12:51;;;;;;;2.67;2.20;;;25.90;51.70;;;;;;5047657;28;20092;-59
2022/08/16 00:15:24;;;;;;;2.03;1.92;;;25.90;51.70;;;;;;5047184;28;20051;-59
2022/08/16 00:18:13;;;;;;;2.72;2.47;;;25.90;51.70;;;;;;5048061;28;20499;-60
2022/08/16 00:20:43;;;;;;;2.00;1.90;;;25.90;52.30;;;;;;5044965;28;20386;-60
2022/08/16 00:23:10;;;;;;;1.90;1.80;;;25.80;51.70;;;;;;5042970;28;20099;-59
2022/08/16 00:25:41;;;;;;;1.90;1.80;;;25.80;51.70;;;;;;5047324;28;20106;-59
2022/08/16 00:28:28;;;;;;;2.00;1.88;;;25.90;51.80;;;;;;5047617;28;20069;-59
2022/08/16 00:30:56;;;;;;;2.40;2.20;;;25.80;51.70;;;;;;5047027;28;20200;-59
2022/08/16 00:33:27;;;;;;;2.55;1.77;;;25.80;51.70;;;;;;5047671;28;20112;-59
2022/08/16 00:35:56;;;;;;;2.00;1.90;;;25.80;51.70;;;;;;5047420;28;20040;-59
2022/08/16 00:38:26;;;;;;;2.20;2.00;;;25.90;51.80;;;;;;5047163;28;20079;-59
2022/08/16 00:41:09;;;;;;;1.95;1.85;;;25.90;51.80;;;;;;5047210;28;20469;-59
2022/08/16 00:43:37;;;;;;;2.25;2.15;;;25.80;51.70;;;;;;5047436;28;20128;-59
2022/08/16 00:46:31;;;;;;;2.20;2.10;;;25.80;51.70;;;;;;5046659;28;20245;-59
2022/08/16 00:49:06;;;;;;;2.75;2.42;;;25.90;51.80;;;;;;5047059;28;20561;-59
2022/08/16 00:51:45;;;;;;;2.35;2.17;;;25.90;51.80;;;;;;5046564;28;20132;-59
2022/08/16 00:54:23;;;;;;;2.35;2.13;;;25.90;51.80;;;;;;5042633;28;20048;-59
2022/08/16 00:56:51;;;;;;;2.20;2.10;;;25.80;51.60;;;;;;5046837;28;20446;-59
2022/08/16 00:59:27;;;;;;;2.00;1.90;;;25.90;51.80;;;;;;5046658;28;20049;-59
2022/08/16 01:01:55;;;;;;;2.45;2.10;;;25.90;51.70;;;;;;5045354;28;20098;-60
2022/08/16 01:04:25;;;;;;;4.57;2.30;;;25.90;51.70;;;;;;5046083;28;20485;-59
2022/08/16 01:06:58;;;;;;;2.00;1.90;;;25.90;51.70;;;;;;5046374;28;20045;-59
2022/08/16 01:09:31;;;;;;;2.55;2.03;;;25.80;51.70;;;;;;5045534;28;20049;-59
2022/08/16 01:12:02;;;;;;;2.00;1.90;;;25.80;51.70;;;;;;5046341;28;20052;-59
2022/08/16 01:14:39;;;;;;;2.15;1.95;;;25.80;51.70;;;;;;5046746;28;20405;-59
2022/08/16 01:17:11;;;;;;;4.30;2.28;;;25.80;51.70;;;;;;5046199;28;20465;-59
2022/08/16 01:19:47;;;;;;;2.97;2.50;;;25.80;51.70;;;;;;5045746;28;20295;-59
2022/08/16 01:22:57;;;;;;;2.20;2.10;;;25.90;51.80;;;;;;5046130;28;20041;-59
2022/08/16 01:25:31;;;;;;;2.80;2.45;;;25.80;51.70;;;;;;5041916;28;20117;-59
2022/08/16 01:28:06;;;;;;;2.15;2.05;;;25.80;51.70;;;;;;5045072;28;20578;-59
2022/08/16 01:30:39;;;;;;;1.73;1.63;;;25.80;51.70;;;;;;5046012;28;20453;-59
2022/08/16 01:33:18;;;;;;;1.83;1.73;;;25.80;51.70;;;;;;5044913;28;20049;-59
2022/08/16 01:35:57;;;;;;;2.17;2.08;;;25.80;51.70;;;;;;5045905;28;20128;-59
2022/08/16 01:38:30;;;;;;;1.85;1.75;;;25.80;51.70;;;;;;5045574;28;20473;-60
2022/08/16 01:41:02;;;;;;;2.38;2.05;;;25.80;51.70;;;;;;5046006;28;20083;-60
2022/08/16 01:43:31;;;;;;;1.80;1.70;;;25.80;51.70;;;;;;5044060;28;20075;-59
2022/08/16 01:46:01;;;;;;;2.25;1.77;;;25.80;51.70;;;;;;5046251;28;20076;-59
2022/08/16 01:48:58;;;;;;;2.00;1.90;;;25.90;51.80;;;;;;5045576;28;20055;-59
2022/08/16 01:51:27;;;;;;;2.42;2.22;;;25.80;51.70;;;;;;5044363;28;20493;-59
2022/08/16 01:53:54;;;;;;;2.15;2.05;;;25.80;51.70;;;;;;5045097;28;20498;-60
2022/08/16 01:56:23;;;;;;;1.70;1.60;;;25.80;51.80;;;;;;5041885;28;20317;-59
2022/08/16 01:58:53;;;;;;;3.03;2.30;;;25.80;51.70;;;;;;5045401;28;20139;-59
2022/08/16 02:01:21;;;;;;;2.63;2.42;;;25.80;51.80;;;;;;5046005;28;20255;-59
2022/08/16 02:03:52;;;;;;;2.03;1.85;;;25.80;51.70;;;;;;5044154;28;20464;-59
2022/08/16 02:06:26;;;;;;;1.92;1.83;;;25.80;51.80;;;;;;5045877;28;20124;-60
2022/08/16 02:09:06;;;;;;;2.35;2.15;;;25.80;51.80;;;;;;5045331;28;20053;-59
2022/08/16 02:11:41;;;;;;;2.00;1.90;;;25.80;51.80;;;;;;5045404;28;20128;-60
2022/08/16 02:14:21;;;;;;;2.35;2.22;;;25.80;51.80;;;;;;5045263;28;20053;-59
2022/08/16 02:16:53;;;;;;;2.15;2.05;;;25.80;51.70;;;;;;5044224;28;20508;-59
2022/08/16 02:19:23;;;;;;;1.98;1.88;;;25.80;51.70;;;;;;5044702;28;20048;-59
2022/08/16 02:22:13;;;;;;;2.30;2.10;;;25.80;51.70;;;;;;5044578;28;20045;-59
2022/08/16 02:25:03;;;;;;;3.13;2.83;;;25.80;51.70;;;;;;5045132;28;20124;-59
2022/08/16 02:27:31;;;;;;;1.80;1.70;;;25.80;51.80;;;;;;5039425;28;20049;-59
2022/08/16 02:29:58;;;;;;;1.85;1.75;;;25.80;51.70;;;;;;5044158;28;20132;-60
2022/08/16 02:32:31;;;;;;;2.90;2.55;;;25.80;51.70;;;;;;5044764;28;20099;-59
2022/08/16 02:35:19;;;;;;;2.47;2.28;;;25.80;51.70;;;;;;5045884;28;20057;-59
2022/08/16 02:37:50;;;;;;;1.80;1.70;;;25.80;51.70;;;;;;5045536;28;20056;-59
2022/08/16 02:40:19;;;;;;;;;;;25.80;51.80;;;;;;5044423;28;20045;-59
2022/08/16 02:42:48;;;;;;;4.30;2.40;;;25.80;51.70;;;;;;5044827;28;19967;-59
2022/08/16 02:45:19;;;;;;;2.03;1.90;;;25.80;51.80;;;;;;5047919;28;20099;-59
2022/08/16 02:47:52;;;;;;;3.22;2.28;;;25.80;51.80;;;;;;5048902;28;20053;-59
2022/08/16 02:50:39;;;;;;;1.73;1.63;;;25.80;51.80;;;;;;5048874;28;20099;-59
2022/08/16 02:53:26;;;;;;;1.85;1.75;;;25.80;51.90;;;;;;5048141;28;20135;-59
2022/08/16 02:55:55;;;;;;;2.50;2.30;;;25.80;51.90;;;;;;5049373;28;20047;-59
2022/08/16 02:58:23;;;;;;;2.08;1.88;;;25.80;51.90;;;;;;5047065;28;20048;-59
2022/08/16 03:00:52;;;;;;;2.38;2.17;;;25.80;51.90;;;;;;5044787;28;20498;-59
2022/08/16 03:03:24;;;;;;;2.08;1.83;;;25.80;51.90;;;;;;5047525;28;20127;-59
2022/08/16 03:05:52;;;;;;;1.98;1.88;;;25.80;51.90;;;;;;5048670;28;20673;-60
2022/08/16 03:08:20;;;;;;;2.10;1.90;;;25.80;52.00;;;;;;5048601;28;20044;-59
2022/08/16 03:11:08;;;;;;;5.57;2.15;;;25.80;52.00;;;;;;5048055;28;20041;-60
2022/08/16 03:13:45;;;;;;;1.80;1.70;;;25.80;52.00;;;;;;5048671;28;20049;-59
2022/08/16 03:16:14;;;;;;;4.55;2.15;;;25.80;52.00;;;;;;5047117;28;20049;-61
2022/08/16 03:19:01;;;;;;;3.72;2.25;;;25.80;52.00;;;;;;5048446;28;20145;-59
2022/08/16 03:21:32;;;;;;;2.05;1.95;;;25.80;52.00;;;;;;5048363;28;20127;-60
2022/08/16 03:24:08;;;;;;;2.00;1.90;;;25.80;52.00;;;;;;5048646;28;20103;-59
2022/08/16 03:26:59;;;;;;;3.03;2.35;;;25.80;52.10;;;;;;5048619;28;20041;-60
2022/08/16 03:29:31;;;;;;;2.70;2.13;;;25.80;52.10;;;;;;5048710;28;20045;-60
2022/08/16 03:32:00;;;;;;;2.05;1.95;;;25.80;52.10;;;;;;5043951;28;20368;-59
2022/08/16 03:34:29;;;;;;;2.13;2.03;;;25.70;52.00;;;;;;5047986;28;20048;-59
2022/08/16 03:36:57;;;;;;;1.90;1.80;;;25.80;52.10;;;;;;5047116;28;20095;-59
2022/08/16 03:39:25;;;;;;;2.13;1.92;;;25.80;52.10;;;;;;5047516;28;20056;-59
2022/08/16 03:41:53;;;;;;;3.65;1.95;;;25.80;52.10;;;;;;5048642;28;20073;-60
2022/08/16 03:44:27;;;;;;;4.25;2.45;;;25.80;52.10;;;;;;5047692;28;20084;-59
2022/08/16 03:47:13;;;;;;;2.58;2.10;;;25.80;52.20;;;;;;5049020;28;20436;-59
2022/08/16 03:49:47;;;;;;;4.40;2.50;;;25.70;52.10;;;;;;5048174;28;20091;-59
2022/08/16 03:52:20;;;;;;;2.25;2.10;;;25.80;52.20;;;;;;5047559;28;20520;-59
2022/08/16 03:54:51;;;;;;;2.25;2.08;;;25.80;52.20;;;;;;5046738;28;20083;-59
2022/08/16 03:57:24;;;;;;;2.00;1.90;;;25.80;52.20;;;;;;5047719;28;20185;-59
2022/08/16 04:00:16;;;;;;;2.00;1.90;;;25.80;52.20;;;;;;5046831;28;20049;-59
2022/08/16 04:03:06;;;;;;;3.88;2.40;;;25.80;52.20;;;;;;5040849;28;20417;-59
2022/08/16 04:05:41;;;;;;;2.22;2.03;;;25.80;52.20;;;;;;5046534;28;20057;-59
2022/08/16 04:08:13;;;;;;;1.80;1.70;;;25.80;52.20;;;;;;5048038;28;20044;-59
2022/08/16 04:10:52;;;;;;;2.45;2.20;;;25.80;52.20;;;;;;5047540;28;20076;-59
2022/08/16 04:13:20;;;;;;;3.35;2.42;;;25.80;52.20;;;;;;5046180;28;20117;-59
2022/08/16 04:16:08;;;;;;;2.83;2.00;;;25.80;52.80;;;;;;5046546;28;20103;-59
2022/08/16 04:18:55;;;;;;;2.40;2.20;;;25.80;52.20;;;;;;5045039;28;20653;-59
2022/08/16 04:21:28;;;;;;;3.42;1.95;;;25.80;52.20;;;;;;5045576;28;20405;-59
2022/08/16 04:23:55;;;;;;;4.18;2.17;;;25.90;52.30;;;;;;5046892;28;20044;-59
2022/08/16 04:26:22;;;;;;;2.00;1.90;;;25.90;52.30;;;;;;5046524;28;20079;-59
2022/08/16 04:28:57;;;;;;;3.28;2.17;;;25.90;52.30;;;;;;5047568;28;20049;-60
2022/08/16 04:31:46;;;;;;;2.20;2.10;;;25.90;52.20;;;;;;5048858;28;20122;-59
2022/08/16 04:34:29;;;;;;;2.20;2.03;;;25.90;52.20;;;;;;5042659;28;20052;-62
2022/08/16 04:36:57;;;;;;;2.17;2.05;;;25.90;52.10;;;;;;5047133;28;20053;-61
2022/08/16 04:39:29;;;;;;;2.72;2.45;;;26.00;52.20;;;;;;5046834;28;20051;-61
2022/08/16 04:42:14;;;;;;;2.35;2.25;;;26.00;52.10;;;;;;5047057;28;20052;-59
2022/08/16 04:44:42;;;;;;;2.97;2.38;;;25.90;52.00;;;;;;5046989;28;20053;-61
2022/08/16 04:47:27;;;;;;;2.38;2.17;;;26.00;52.10;;;;;;5046461;28;20048;-62
2022/08/16 04:49:58;;;;;;;2.00;1.90;;;26.00;52.00;;;;;;5040776;28;20349;-59
2022/08/16 04:52:25;;;;;;;2.22;2.03;;;26.00;52.00;;;;;;5036170;28;20053;-59
2022/08/16 04:55:00;;;;;;;2.40;2.28;;;26.00;51.90;;;;;;5031418;28;20052;-59
2022/08/16 04:57:29;;;;;;;4.25;2.10;;;26.00;51.90;;;;;;5065541;28;20045;-59
2022/08/16 04:59:56;;;;;;;1.95;1.85;;;26.00;51.80;;;;;;5030834;28;20457;-59
2022/08/16 05:02:23;;;;;;;2.22;2.10;;;26.10;51.90;;;;;;5028898;28;20049;-60
2022/08/16 05:05:10;;;;;;;2.50;2.30;;;26.10;51.80;;;;;;5034414;28;20534;-60
2022/08/16 05:07:44;;;;;;;4.18;2.60;;;26.10;51.70;;;;;;5037250;28;20049;-59
2022/08/16 05:10:27;;;;;;;2.60;2.40;;;26.10;51.70;;;;;;5036063;28;20044;-59
2022/08/16 05:12:57;;;;;;;3.55;2.72;;;26.00;51.80;;;;;;5037381;28;20119;-59
2022/08/16 05:15:25;;;;;;;2.90;2.60;;;26.00;52.10;;;;;;5037673;28;20049;-61
2022/08/16 05:17:54;;;;;;;2.88;2.40;;;25.80;52.30;;;;;;5042717;28;20490;-59
2022/08/16 05:20:26;;;;;;;2.45;2.35;;;25.60;52.60;;;;;;5048159;28;20049;-59
2022/08/16 05:23:11;;;;;;;5.22;2.95;;;25.40;52.70;;;;;;5033845;28;20053;-58
2022/08/16 05:25:41;;;;;;;3.05;2.75;;;25.10;52.40;;;;;;5041115;28;20045;-62
2022/08/16 05:28:16;;;;;;;3.00;2.80;;;24.80;51.90;;;;;;5028853;28;20060;-61
2022/08/16 05:30:44;;;;;;;3.47;3.17;;;24.50;51.80;;;;;;5036418;28;20183;-61
2022/08/16 05:33:16;;;;;;;3.88;3.58;;;24.10;52.20;;;;;;5039419;28;20052;-61
2022/08/16 05:35:45;;;;;;;3.83;3.38;;;23.80;52.20;;;;;;5034451;28;20049;-62
2022/08/16 05:38:26;;;;;;;5.30;3.70;;;23.50;52.50;;;;;;5029624;28;20103;-63
2022/08/16 05:41:06;;;;;;;4.07;3.67;;;23.10;52.50;;;;;;5045956;28;20057;-68
2022/08/16 05:43:36;;;;;;;5.05;4.07;;;22.80;52.20;;;;;;5036899;28;20049;-63
2022/08/16 05:46:18;;;;;;;5.07;3.80;;;22.50;52.60;;;;;;5035154;28;20533;-62
2022/08/16 05:48:59;;;;;;;5.90;4.00;;;22.20;52.90;;;;;;5038904;28;20048;-62
2022/08/16 05:51:36;;;;;;;4.18;3.78;;;22.00;52.80;;;;;;5039906;28;20448;-63
2022/08/16 05:54:09;;;;;;;3.97;3.65;;;21.80;52.80;;;;;;5038950;28;20132;-62
2022/08/16 05:56:41;;;;;;;4.28;3.60;;;21.60;53.60;;;;;;5035655;28;20253;-62
2022/08/16 05:59:09;;;;;;;4.20;3.72;;;21.40;54.10;;;;;;5035867;28;20059;-62
2022/08/16 06:01:37;;;;;;;3.78;3.42;;;21.30;54.40;;;;;;5043634;28;20045;-62
2022/08/16 06:04:08;;;;;;;7.90;4.82;;;21.10;54.50;;;;;;5037629;28;20056;-62
2022/08/16 06:06:56;;;;;;;;;;;21.00;55.20;;;;;;5027918;28;20524;-62
2022/08/16 06:09:25;;;;;;;3.92;3.35;;;20.90;55.00;;;;;;5036080;28;20296;-62
2022/08/16 06:12:14;;;;;;;4.45;4.05;;;20.80;55.60;;;;;;5043152;28;20047;-61
2022/08/16 06:14:57;;;;;;;6.10;3.50;;;20.80;56.50;;;;;;5037257;28;20748;-61
2022/08/16 06:17:28;;;;;;;4.70;3.60;;;20.80;56.60;;;;;;5037040;28;20045;-61
2022/08/16 06:20:13;;;;;;;4.47;3.88;;;20.80;57.10;;;;;;5033934;28;20062;-61
2022/08/16 06:22:40;;;;;;;4.32;3.80;;;20.70;57.10;;;;;;5040246;28;20045;-62
2022/08/16 06:25:13;;;;;;;5.38;3.90;;;20.80;57.50;;;;;;5031964;28;20497;-61
2022/08/16 06:27:41;;;;;;;6.07;3.72;;;20.70;57.50;;;;;;5032546;28;20044;-61
2022/08/16 06:30:24;;;;;;;4.95;4.22;;;20.70;57.70;;;;;;5035066;28;20053;-61
2022/08/16 06:32:55;;;;;;;8.45;4.28;;;20.80;57.60;;;;;;5037389;28;20098;-61
2022/08/16 06:35:23;;;;;;;5.30;4.50;;;20.70;57.40;;;;;;5040705;28;20135;-61
2022/08/16 06:37:51;;;;;;;7.13;4.50;;;20.70;58.30;;;;;;5037856;28;20103;-61
2022/08/16 06:40:19;;;;;;;4.93;4.43;;;20.70;58.00;;;;;;5034662;28;20045;-62
2022/08/16 06:42:46;;;;;;;5.57;4.38;;;20.80;58.20;;;;;;5037035;28;20045;-64
2022/08/16 06:45:15;;;;;;;4.82;3.90;;;20.80;58.00;;;;;;5038067;28;20551;-63
2022/08/16 06:47:42;;;;;;;4.95;3.72;;;20.80;58.30;;;;;;5034051;28;20040;-62
2022/08/16 06:50:21;;;;;;;4.78;4.35;;;20.80;58.30;;;;;;5027736;28;20053;-63
2022/08/16 06:52:55;;;;;;;3.70;3.35;;;20.90;58.60;;;;;;5036451;28;20057;-63
2022/08/16 06:55:26;;;;;;;5.18;4.22;;;20.90;58.60;;;;;;5034716;28;20135;-61
2022/08/16 06:58:01;;;;;;;7.10;3.58;;;20.90;58.90;;;;;;5036312;28;20049;-62
2022/08/16 07:00:47;;;;;;;4.53;4.13;;;20.90;58.60;;;;;;5031476;28;20406;-62
2022/08/16 07:03:15;;;;;;;5.57;3.72;;;20.90;58.80;;;;;;5034825;28;20045;-63
2022/08/16 07:05:58;;;;;;;4.43;3.97;;;20.90;59.10;;;;;;5034808;28;20053;-62
2022/08/16 07:08:28;;;;;;;5.47;4.45;;;20.90;59.20;;;;;;5035801;28;20050;-62
2022/08/16 07:10:57;;;;;;;4.70;4.28;;;21.00;59.30;;;;;;5033597;28;20045;-61
2022/08/16 07:13:29;;;;;;;5.55;4.55;;;20.90;59.20;;;;;;5027691;28;20144;-61
2022/08/16 07:16:16;;;;;;;5.45;3.97;;;20.90;59.90;;;;;;5034711;28;20108;-60
2022/08/16 07:18:47;;;;;;;5.05;4.03;;;20.90;59.70;;;;;;5037580;28;20114;-63
2022/08/16 07:21:28;;;;;;;5.03;3.97;;;20.90;59.90;;;;;;5040473;28;20045;-61
2022/08/16 07:24:12;;;;;;;4.55;4.00;;;21.00;60.00;;;;;;5039050;28;20076;-63
2022/08/16 07:26:58;;;;;;;6.28;4.30;;;21.00;60.20;;;;;;5038845;28;20048;-62
2022/08/16 07:29:27;;;;;;;4.53;4.05;;;21.00;60.00;;;;;;5039237;28;20056;-64
2022/08/16 07:31:58;;;;;;;4.00;3.65;;;21.00;59.80;;;;;;5047504;28;20616;-62
2022/08/16 07:34:27;;;;;;;4.30;3.90;;;21.00;59.90;;;;;;5038932;28;20057;-64
2022/08/16 07:37:08;;;;;;;4.20;3.70;;;21.00;60.10;;;;;;5040153;28;20552;-64
2022/08/16 07:39:37;;;;;;;6.88;3.90;;;21.10;60.00;;;;;;5044893;28;20113;-63
2022/08/16 07:42:10;;;;;;;8.63;4.20;;;21.10;60.00;;;;;;5055101;28;20448;-61
2022/08/16 07:44:57;;;;;;;4.00;3.70;;;21.10;59.80;;;;;;5041216;28;20080;-63
2022/08/16 07:47:25;;;;;;;4.28;3.78;;;21.10;59.70;;;;;;5042343;28;20045;-63
2022/08/16 07:49:59;;;;;;;5.88;3.97;;;21.10;59.80;;;;;;5042356;28;20049;-63
2022/08/16 07:52:33;;;;;;;4.20;3.90;;;21.10;59.70;;;;;;5039798;28;20053;-62
2022/08/16 07:55:07;;;;;;;5.15;4.15;;;21.20;59.80;;;;;;5041833;28;20052;-63
2022/08/16 07:57:34;;;;;;;4.47;3.78;;;21.20;59.80;;;;;;5037237;28;20481;-64
2022/08/16 08:00:22;;;;;;;4.45;4.00;;;21.20;59.90;;;;;;5038137;28;20092;-63
2022/08/16 08:02:54;;;;;;;4.82;3.72;;;21.20;59.80;;;;;;5043624;28;20413;-64
2022/08/16 08:05:24;;;;;;;6.20;4.13;;;21.20;60.00;;;;;;5038787;28;20091;-64
2022/08/16 08:08:03;;;;;;;4.20;3.75;;;21.20;60.00;;;;;;5041540;28;20048;-65
2022/08/16 08:10:51;;;;;;;8.35;3.90;;;21.30;59.80;;;;;;5041637;28;20132;-63
2022/08/16 08:13:18;;;;;;;4.63;3.80;;;21.20;59.90;;;;;;5037743;28;20069;-64
2022/08/16 08:16:05;;;;;;;5.07;4.38;;;21.20;59.80;;;;;;5035056;28;20057;-64
2022/08/16 08:18:44;;;;;;;4.32;3.92;;;21.20;59.90;;;;;;5041541;28;20041;-62
2022/08/16 08:21:24;;;;;;;6.63;4.18;;;21.20;59.80;;;;;;5040557;28;20068;-63
2022/08/16 08:23:53;;;;;;;10.93;4.53;;;21.20;59.80;;;;;;5038851;28;20038;-62
2022/08/16 08:26:21;;;;;;;4.97;3.83;;;21.10;59.80;;;;;;5032848;28;20049;-62
2022/08/16 08:28:50;;;;;;;5.10;3.78;;;21.10;60.30;;;;;;5039264;28;20094;-63
2022/08/16 08:31:17;;;;;;;5.60;3.78;;;21.00;60.40;;;;;;5039036;28;20048;-62
2022/08/16 08:33:45;;;;;;;11.45;4.03;;;21.00;60.60;;;;;;5036489;28;20057;-63
2022/08/16 08:36:25;;;;;;;6.70;3.92;;;21.10;60.50;;;;;;5040190;28;20049;-63
2022/08/16 08:39:00;;;;;;;6.95;4.60;;;21.10;60.50;;;;;;5037162;28;20537;-63
2022/08/16 08:41:28;;;;;;;7.35;4.25;;;21.10;60.50;;;;;;5036346;28;20041;-64
2022/08/16 08:43:57;;;;;;;6.68;3.83;;;21.20;60.40;;;;;;5038863;28;20053;-64
2022/08/16 08:46:25;;;;;;;3.78;3.38;;;21.20;60.30;;;;;;5037599;28;20082;-63
2022/08/16 08:48:54;;;;;;;6.45;4.32;;;21.10;60.20;;;;;;5037901;28;20551;-63
2022/08/16 08:51:29;;;;;;;4.35;3.92;;;21.20;60.00;;;;;;5038518;28;20053;-63
2022/08/16 08:54:03;;;;;;;7.22;4.50;;;21.20;59.90;;;;;;5039397;28;20546;-63
2022/08/16 08:56:36;;;;;;;5.10;4.60;;;21.20;59.70;;;;;;5038996;28;20060;-63
2022/08/16 08:59:05;;;;;;;5.45;4.35;;;21.20;59.80;;;;;;5032146;28;20075;-61
2022/08/16 09:01:47;;;;;;;5.05;4.22;;;21.20;59.80;;;;;;5036270;28;20124;-61
2022/08/16 09:04:25;;;;;;;5.97;4.35;;;21.20;60.00;;;;;;5042026;28;20401;-62
2022/08/16 09:06:54;;;;;;;4.63;4.13;;;21.30;60.30;;;;;;5064331;28;20372;-62
2022/08/16 09:09:24;;;;;;;4.50;4.05;;;21.30;60.10;;;;;;5039970;28;20053;-61
2022/08/16 09:12:01;;;;;;;4.57;4.18;;;21.30;60.10;;;;;;5032827;28;20152;-62
2022/08/16 09:14:38;;;;;;;7.15;4.40;;;21.30;60.40;;;;;;5032256;28;20271;-62
2022/08/16 09:17:17;;;;;;;5.55;4.22;;;21.30;60.40;;;;;;5038316;28;20509;-62
2022/08/16 09:20:06;;;;;;;3.97;3.65;;;21.40;60.60;;;;;;5034058;28;20140;-64
2022/08/16 09:22:34;;;;;;;5.82;4.47;;;21.40;60.90;;;;;;5039455;28;20048;-63
2022/08/16 09:25:03;;;;;;;4.68;4.18;;;21.50;60.80;;;;;;5037635;28;20049;-62
2022/08/16 09:27:37;;;;;;;10.70;4.30;;;21.50;60.70;;;;;;5038387;28;20111;-63
2022/08/16 09:30:25;;;;;;;5.05;4.20;;;21.50;60.70;;;;;;5041642;28;20048;-62
2022/08/16 09:33:04;;;;;;;5.20;4.20;;;21.50;60.80;;;;;;5039876;28;20497;-62
2022/08/16 09:35:35;;;;;;;5.43;4.90;;;21.60;60.50;;;;;;5040574;28;20046;-62
2022/08/16 09:38:05;;;;;;;5.88;4.82;;;21.60;60.40;;;;;;5042578;28;20142;-61
2022/08/16 09:40:35;;;;;;;;;;;21.60;60.30;;;;;;5037262;28;21915;-62
2022/08/16 09:43:14;;;;;;;6.57;4.45;;;21.60;60.10;;;;;;5043203;28;21015;-63
2022/08/16 09:46:03;;;;;;;3.90;3.53;;;21.60;60.10;;;;;;5060741;28;20065;-63
2022/08/16 09:48:51;;;;;;;5.38;4.10;;;21.60;60.40;;;;;;5036526;28;21175;-61
2022/08/16 09:51:25;;;;;;;4.43;4.03;;;21.60;60.00;;;;;;5033290;28;20050;-63
2022/08/16 09:54:05;;;;;;;6.57;3.92;;;21.60;60.10;;;;;;5035816;28;20037;-62
2022/08/16 09:56:38;;;;;;;5.13;4.40;;;21.60;60.10;;;;;;5044715;28;20040;-62
2022/08/16 09:59:22;;;;;;;5.15;4.65;;;21.60;60.10;;;;;;5040177;28;20453;-62
2022/08/16 10:01:52;;;;;;;6.38;4.35;;;21.60;60.50;;;;;;5039779;28;20083;-64
2022/08/16 10:04:21;;;;;;;6.80;4.60;;;21.60;60.50;;;;;;5044331;28;20052;-63
2022/08/16 10:07:03;;;;;;;5.10;3.90;;;21.70;60.50;;;;;;5026418;28;20440;-63
2022/08/16 10:09:43;;;;;;;4.22;3.83;;;21.70;60.50;;;;;;5043851;28;20044;-63
2022/08/16 10:15:14;;;;;;;3.73;3.33;;;21.70;60.00;;;;;;5038384;28;20045;-63
2022/08/16 10:17:46;;;;;;;10.05;4.88;;;21.80;59.50;;;;;;5037753;28;20051;-63
2022/08/16 10:20:35;;;;;;;6.60;3.95;;;21.80;59.80;;;;;;5042987;28;20044;-63
2022/08/16 10:23:07;;;;;;;4.72;3.80;;;21.80;60.00;;;;;;5034023;28;20049;-63
2022/08/16 10:25:46;;;;;;;6.35;4.72;;;21.70;59.20;;;;;;5037173;28;20048;-63
2022/08/16 10:28:34;;;;;;;4.38;3.90;;;21.80;59.00;;;;;;5034404;28;20080;-63
2022/08/16 10:31:09;;;;;;;4.35;3.80;;;21.70;58.70;;;;;;5039149;28;20053;-63
2022/08/16 10:33:43;;;;;;;5.25;4.20;;;21.70;58.20;;;;;;5039554;28;20495;-63
2022/08/16 10:36:12;;;;;;;5.10;3.97;;;21.60;57.70;;;;;;5039522;28;20052;-63
2022/08/16 10:39:00;;;;;;;5.65;4.45;;;21.60;58.10;;;;;;5040786;28;20144;-63
2022/08/16 10:41:27;;;;;;;4.65;4.25;;;21.50;57.60;;;;;;5036469;28;20436;-64
2022/08/16 10:43:55;;;;;;;5.03;3.90;;;21.40;58.20;;;;;;5037428;28;20147;-64
2022/08/16 10:46:22;;;;;;;6.05;4.55;;;21.40;58.10;;;;;;5044753;28;20402;-64
2022/08/16 10:49:09;;;;;;;6.07;4.05;;;21.30;58.00;;;;;;5039142;28;20405;-64
2022/08/16 10:51:38;;;;;;;8.43;4.07;;;21.30;58.00;;;;;;5042839;28;20533;-64
2022/08/16 10:54:25;;;;;;;6.18;4.22;;;21.20;57.70;;;;;;5038331;28;20045;-64
2022/08/16 10:57:01;;;;;;;6.88;4.35;;;21.20;57.90;;;;;;5031987;28;20045;-64
2022/08/16 10:59:32;;;;;;;7.50;4.03;;;21.10;57.50;;;;;;5037922;28;20068;-63
2022/08/16 11:02:21;;;;;;;6.07;4.03;;;21.00;58.10;;;;;;5039828;28;20150;-62
2022/08/16 11:05:13;;;;;;;4.25;3.85;;;21.00;57.90;;;;;;5048992;28;20298;-64
2022/08/16 11:07:45;;;;;;;10.07;4.70;;;20.90;58.20;;;;;;5057070;28;20053;-63
2022/08/16 11:10:35;;;;;;;6.00;4.20;;;20.90;58.40;;;;;;5056872;28;20053;-63
2022/08/16 11:13:25;;;;;;;4.38;3.97;;;20.80;58.20;;;;;;5056506;28;20049;-64
2022/08/16 11:16:12;;;;;;;7.53;3.53;;;20.80;58.70;;;;;;5056588;28;20500;-63
2022/08/16 11:18:59;;;;;;;6.38;4.47;;;20.80;58.60;;;;;;5056604;28;20049;-63
2022/08/16 11:21:35;;;;;;;4.32;3.67;;;20.80;58.50;;;;;;5056918;28;20103;-63
2022/08/16 11:24:23;;;;;;;5.55;4.00;;;20.80;58.80;;;;;;5057366;28;20045;-61
2022/08/16 11:27:15;;;;;;;4.78;3.92;;;20.80;58.90;;;;;;5039717;28;20048;-61
2022/08/16 11:29:53;;;;;;;5.47;4.23;;;20.80;58.80;;;;;;5038942;28;20087;-62
2022/08/16 11:32:24;;;;;;;6.28;4.32;;;20.80;59.10;;;;;;5041173;28;20368;-61
2022/08/16 11:35:02;;;;;;;4.82;4.03;;;20.80;59.10;;;;;;5039019;28;20041;-61
2022/08/16 11:37:38;;;;;;;3.78;3.17;;;20.80;59.00;;;;;;5037633;28;20378;-61
2022/08/16 11:40:30;;;;;;;5.18;3.65;;;20.90;58.90;;;;;;5038410;28;20678;-60
2022/08/16 11:43:00;;;;;;;5.50;3.67;;;20.90;59.00;;;;;;5040799;28;20052;-60
2022/08/16 11:45:31;;;;;;;4.63;3.08;;;20.90;59.10;;;;;;5036049;28;20514;-61
2022/08/16 11:48:02;;;;;;;4.10;3.72;;;21.00;59.30;;;;;;5033481;28;20051;-60
2022/08/16 11:50:33;;;;;;;4.63;3.53;;;21.00;59.10;;;;;;5040273;28;20065;-61
2022/08/16 11:53:02;;;;;;;4.72;3.80;;;21.10;59.40;;;;;;5035689;28;20044;-60
2022/08/16 11:55:30;;;;;;;7.13;4.10;;;21.10;59.20;;;;;;5040188;28;20047;-61
2022/08/16 11:57:59;;;;;;;4.13;3.42;;;21.10;59.00;;;;;;5045738;28;20045;-60
2022/08/16 12:00:28;;;;;;;4.70;3.45;;;21.20;59.20;;;;;;5036082;28;20056;-64
2022/08/16 12:03:16;;;;;;;3.53;3.22;;;21.30;59.10;;;;;;5040355;28;20170;-61
2022/08/16 12:05:46;;;;;;;4.00;3.60;;;21.30;59.10;;;;;;5042309;28;20057;-61
2022/08/16 12:08:21;;;;;;;5.07;4.13;;;21.30;59.00;;;;;;5040091;28;20136;-61
2022/08/16 12:10:54;;;;;;;5.72;3.80;;;21.30;58.90;;;;;;5042283;28;20051;-61
2022/08/16 12:13:26;;;;;;;4.00;3.60;;;21.30;58.90;;;;;;5038583;28;20132;-61
2022/08/16 12:15:55;;;;;;;3.33;3.03;;;21.30;58.80;;;;;;5067435;28;20102;-61
2022/08/16 12:18:23;;;;;;;3.83;3.08;;;21.30;58.60;;;;;;5044200;28;20060;-60
2022/08/16 12:20:51;;;;;;;4.25;3.67;;;21.30;58.30;;;;;;5037730;28;20045;-61
2022/08/16 12:23:24;;;;;;;3.50;3.20;;;21.30;58.40;;;;;;5045195;28;20092;-60
2022/08/16 12:25:51;;;;;;;4.75;3.70;;;21.30;58.40;;;;;;5047456;28;20048;-61
2022/08/16 12:28:18;;;;;;;4.88;3.10;;;21.30;58.50;;;;;;5045377;28;20044;-61
2022/08/16 12:31:06;;;;;;;3.65;3.35;;;21.30;58.40;;;;;;5032384;28;20072;-60
2022/08/16 12:33:33;;;;;;;4.00;3.25;;;21.30;58.20;;;;;;5040204;28;20078;-60
2022/08/16 12:36:12;;;;;;;4.45;3.75;;;21.30;58.50;;;;;;5042634;28;20061;-60
2022/08/16 12:38:41;;;;;;;4.93;2.90;;;21.30;58.50;;;;;;5044800;28;20422;-61
2022/08/16 12:41:15;;;;;;;3.50;3.20;;;21.30;58.30;;;;;;5041305;28;20076;-61
2022/08/16 12:43:51;;;;;;;3.85;3.50;;;21.30;58.20;;;;;;5039428;28;20072;-60
2022/08/16 12:46:24;;;;;;;4.00;3.60;;;21.30;58.30;;;;;;5043993;28;20135;-61
2022/08/16 12:48:57;;;;;;;3.50;3.20;;;21.30;58.30;;;;;;5040271;28;20071;-60
2022/08/16 12:51:36;;;;;;;3.50;3.20;;;21.30;58.50;;;;;;5039177;28;20045;-61
2022/08/16 12:54:23;;;;;;;3.75;3.13;;;21.30;58.30;;;;;;5039702;28;20045;-59
2022/08/16 12:56:51;;;;;;;4.25;3.05;;;21.30;58.30;;;;;;5039475;28;20254;-60
2022/08/16 12:59:21;;;;;;;;;;;21.30;58.30;;;;;;5040088;28;20249;-60
2022/08/16 13:01:49;;;;;;;3.65;3.35;;;21.30;58.00;;;;;;5044259;28;19920;-60
2022/08/16 13:04:26;;;;;;;3.60;3.20;;;21.30;58.10;;;;;;5037870;28;20045;-59
2022/08/16 13:07:03;;;;;;;3.50;3.22;;;21.30;58.70;;;;;;5040796;28;20048;-61
2022/08/16 13:09:41;;;;;;;5.63;3.50;;;21.30;57.80;;;;;;5038172;28;20084;-60
2022/08/16 13:12:22;;;;;;;3.53;3.22;;;21.30;57.90;;;;;;5043585;28;20049;-60
2022/08/16 13:14:52;;;;;;;6.47;3.88;;;21.30;58.00;;;;;;5043767;28;20053;-60
2022/08/16 13:17:23;;;;;;;5.00;3.03;;;21.30;57.80;;;;;;5045271;28;20107;-59
2022/08/16 13:19:53;;;;;;;4.97;3.78;;;21.40;57.70;;;;;;5044631;28;20052;-60
2022/08/16 13:22:42;;;;;;;4.80;3.35;;;21.30;57.50;;;;;;5042623;28;20056;-59
2022/08/16 13:25:12;;;;;;;3.63;3.28;;;21.30;57.60;;;;;;5038081;28;20425;-60
2022/08/16 13:27:47;;;;;;;4.35;3.38;;;21.30;57.50;;;;;;5042938;28;20103;-59
2022/08/16 13:30:32;;;;;;;4.20;3.55;;;21.40;57.90;;;;;;5034257;28;20049;-59